OMFJ/FJR METAR and TAF weather

Enter ICAO airport designator
Station Type Date Time Source
OMFJ METAR 2022/11/30 11:00 UTC NOAA

OMFJ 301100Z 09006KT 060V130 7000 FEW025 28/21 Q1015 A2998


Station Type Date Time Source
OMFJ Decoded METAR 2022/11/30 11:00 UTC NOAA

Fujairah, United Arab Emirates (OMFJ) 25-06N 056-20E 28M
Nov 30, 2022 - 06:00 AM EST / 2022.11.30 1100 UTC
Wind: from the E (090 degrees) at 7 MPH (6 KT) (direction variable):0
Visibility: 4 mile(s):0
Sky conditions: mostly clear
Temperature: 82 F (28 C)
Dew Point: 69 F (21 C)
Relative Humidity: 65%
Pressure (altimeter): 29.98 in. Hg (1015 hPa)
ob: OMFJ 301100Z 09006KT 060V130 7000 FEW025 28/21 Q1015 A2998
cycle: 11

Station Type Date Time Source
OMFJ TAF 2022/11/30 12:12 UTC NOAA

TAF OMFJ 301100Z 3012/0118 09006KT 7000 FEW025
BECMG 3014/3016 VRB03KT NSC
BECMG 3020/3022 30005KT
BECMG 0106/0108 11007KT

Example: see airport list